createdAt,value
2023-02-21T00:00:50.038Z,0.00
2023-02-21T00:01:50.184Z,0.00
2023-02-21T00:02:50.319Z,0.00
2023-02-21T00:03:50.470Z,0.00
2023-02-21T00:04:50.592Z,0.00
2023-02-21T00:05:50.832Z,0.00
2023-02-21T00:06:50.884Z,0.00
2023-02-21T00:07:51.044Z,0.00
2023-02-21T00:08:51.174Z,0.00
2023-02-21T00:09:51.316Z,0.00
2023-02-21T00:10:51.434Z,0.00
2023-02-21T00:11:51.558Z,0.00
2023-02-21T00:12:51.718Z,0.00
2023-02-21T00:13:51.849Z,0.00
2023-02-21T00:14:51.980Z,0.00
2023-02-21T00:15:52.132Z,0.00
2023-02-21T00:16:52.260Z,0.00
2023-02-21T00:17:52.419Z,0.00
2023-02-21T00:18:52.530Z,0.00
2023-02-21T00:19:52.679Z,0.00
2023-02-21T00:20:52.798Z,0.00
2023-02-21T00:21:52.977Z,0.00
2023-02-21T00:22:53.170Z,0.00
2023-02-21T00:23:53.309Z,0.00
2023-02-21T00:24:53.445Z,0.00
2023-02-21T00:25:53.581Z,0.00
2023-02-21T00:26:53.716Z,0.00
2023-02-21T00:27:53.888Z,0.00
2023-02-21T00:28:54.019Z,0.00
2023-02-21T00:29:54.165Z,0.00
2023-02-21T00:30:54.417Z,0.00
2023-02-21T00:31:54.402Z,0.00
2023-02-21T00:32:54.758Z,0.00
2023-02-21T00:33:54.733Z,0.00
2023-02-21T00:34:54.894Z,0.00
2023-02-21T00:35:55.019Z,0.00
2023-02-21T00:36:55.182Z,0.00
2023-02-21T00:37:55.350Z,0.00
2023-02-21T00:38:55.508Z,0.00
2023-02-21T00:39:55.639Z,0.00
2023-02-21T00:40:55.762Z,0.00
2023-02-21T00:41:55.900Z,0.00
2023-02-21T00:42:56.060Z,0.00
2023-02-21T00:43:56.192Z,0.00
2023-02-21T00:44:58.784Z,0.00
2023-02-21T00:45:56.490Z,0.00
2023-02-21T00:46:56.604Z,0.00
2023-02-21T00:47:56.767Z,0.00
2023-02-21T00:48:56.896Z,0.00
2023-02-21T00:49:57.049Z,0.00
2023-02-21T00:50:57.173Z,0.00
2023-02-21T00:51:57.328Z,0.00
2023-02-21T00:52:57.469Z,0.00
2023-02-21T00:53:57.614Z,0.00
2023-02-21T00:54:57.755Z,0.00
2023-02-21T00:55:57.893Z,0.00
2023-02-21T00:56:58.025Z,0.00
2023-02-21T00:57:58.198Z,0.00
2023-02-21T00:58:58.375Z,0.00
2023-02-21T00:59:58.496Z,0.00
2023-02-21T01:00:58.674Z,0.00
2023-02-21T01:01:58.815Z,0.00
2023-02-21T01:02:58.970Z,0.00
2023-02-21T01:03:59.138Z,0.00
2023-02-21T01:04:59.292Z,0.00
2023-02-21T01:05:59.426Z,0.00
2023-02-21T01:06:59.553Z,0.00
2023-02-21T01:07:59.723Z,0.00
2023-02-21T01:08:59.855Z,0.00
2023-02-21T01:09:59.999Z,0.00
2023-02-21T01:11:00.142Z,0.00
2023-02-21T01:12:00.268Z,0.00
2023-02-21T01:13:00.424Z,0.00
2023-02-21T01:14:00.585Z,0.00
2023-02-21T01:15:00.711Z,0.00
2023-02-21T01:16:00.907Z,0.00
2023-02-21T01:17:12.366Z,0.00
2023-02-21T01:18:02.061Z,0.00
2023-02-21T01:19:01.190Z,0.00
2023-02-21T01:20:01.342Z,0.00
2023-02-21T01:21:01.456Z,0.00
2023-02-21T01:22:01.603Z,0.00
2023-02-21T01:23:01.764Z,0.00
2023-02-21T01:24:01.902Z,0.00
2023-02-21T01:25:02.030Z,0.00
2023-02-21T01:26:02.174Z,0.00
2023-02-21T01:27:02.302Z,0.00
2023-02-21T01:28:02.442Z,0.00
2023-02-21T01:29:02.592Z,0.00
2023-02-21T01:30:02.894Z,0.00
2023-02-21T01:31:02.928Z,0.00
2023-02-21T01:32:02.976Z,0.00
2023-02-21T01:33:03.093Z,0.00
2023-02-21T01:34:03.260Z,0.00
2023-02-21T01:35:03.391Z,0.00
2023-02-21T01:36:03.535Z,0.00
2023-02-21T01:37:03.662Z,0.00
2023-02-21T01:38:03.818Z,0.00
2023-02-21T01:39:03.973Z,0.00
2023-02-21T01:40:04.107Z,0.00
2023-02-21T01:41:04.237Z,0.00
2023-02-21T01:42:04.374Z,0.00
2023-02-21T01:43:04.509Z,0.00
2023-02-21T01:44:04.679Z,0.00
2023-02-21T01:45:04.818Z,0.00
2023-02-21T01:46:04.999Z,0.00
2023-02-21T01:47:05.118Z,0.00
2023-02-21T01:48:05.270Z,0.00
2023-02-21T01:49:05.418Z,0.00
2023-02-21T01:50:05.566Z,0.00
2023-02-21T01:51:05.705Z,0.00
2023-02-21T01:52:05.854Z,0.00
2023-02-21T01:53:05.989Z,0.00
2023-02-21T01:54:06.142Z,0.00
2023-02-21T01:55:06.277Z,0.00
2023-02-21T01:56:06.405Z,0.00
2023-02-21T01:57:06.535Z,0.00
2023-02-21T01:58:06.705Z,0.00
2023-02-21T01:59:06.865Z,0.00
2023-02-21T02:00:07.008Z,0.00
2023-02-21T02:01:07.132Z,0.00
2023-02-21T02:02:07.275Z,0.00
2023-02-21T02:03:07.415Z,0.00
2023-02-21T02:04:07.596Z,0.00
2023-02-21T02:05:07.724Z,0.00
2023-02-21T02:06:07.849Z,0.00
2023-02-21T02:07:07.966Z,0.00
2023-02-21T02:08:08.110Z,0.00
2023-02-21T02:09:08.256Z,0.00
2023-02-21T02:10:08.396Z,0.00
2023-02-21T02:11:08.532Z,0.00
2023-02-21T02:12:08.661Z,0.00
2023-02-21T02:13:08.796Z,0.00
2023-02-21T02:14:08.930Z,0.00
2023-02-21T02:15:09.052Z,0.00
2023-02-21T02:16:09.214Z,0.00
2023-02-21T02:17:09.295Z,0.00
2023-02-21T02:18:09.430Z,0.00
2023-02-21T02:19:09.665Z,0.00
2023-02-21T02:20:09.725Z,0.00
2023-02-21T02:21:09.846Z,0.00
2023-02-21T02:22:09.996Z,0.00
2023-02-21T02:23:10.140Z,0.00
2023-02-21T02:24:10.290Z,0.00
2023-02-21T02:25:10.409Z,0.00
2023-02-21T02:26:10.548Z,0.00
2023-02-21T02:27:10.692Z,0.00
2023-02-21T02:28:10.868Z,0.00
2023-02-21T02:29:10.904Z,0.00
2023-02-21T02:30:11.079Z,0.00
2023-02-21T02:31:11.316Z,0.00
2023-02-21T02:32:11.416Z,0.00
2023-02-21T02:33:11.527Z,0.00
2023-02-21T02:34:11.671Z,0.00
2023-02-21T02:35:11.786Z,0.00
2023-02-21T02:36:11.916Z,0.00
2023-02-21T02:37:12.042Z,0.00
2023-02-21T02:38:12.190Z,0.00
2023-02-21T02:39:12.319Z,0.00
2023-02-21T02:40:12.467Z,0.00
2023-02-21T02:41:12.862Z,0.00
2023-02-21T02:42:12.675Z,0.00
2023-02-21T02:43:12.843Z,0.00
2023-02-21T02:44:12.973Z,0.00
2023-02-21T02:45:13.093Z,0.00
2023-02-21T02:46:13.221Z,0.00
2023-02-21T02:47:13.360Z,0.00
2023-02-21T02:48:13.483Z,0.00
2023-02-21T02:49:13.622Z,0.00
2023-02-21T02:50:13.750Z,0.00
2023-02-21T02:51:14.173Z,0.00
2023-02-21T02:52:14.023Z,0.00
2023-02-21T02:53:14.140Z,0.00
2023-02-21T02:54:14.301Z,0.00
2023-02-21T02:55:14.432Z,0.00
2023-02-21T02:56:21.620Z,0.00
2023-02-21T02:57:14.743Z,0.00
2023-02-21T02:58:14.901Z,0.00
2023-02-21T02:59:15.139Z,0.00
2023-02-21T03:00:15.170Z,0.00
2023-02-21T03:01:15.610Z,0.00
2023-02-21T03:02:15.521Z,0.00
2023-02-21T03:03:15.649Z,0.00
2023-02-21T03:04:15.791Z,0.00
2023-02-21T03:05:15.932Z,0.00
2023-02-21T03:06:16.069Z,0.00
2023-02-21T03:07:16.197Z,0.00
2023-02-21T03:08:16.321Z,0.00
2023-02-21T03:09:16.468Z,0.00
2023-02-21T03:10:16.592Z,0.00
2023-02-21T03:11:16.905Z,0.00
2023-02-21T03:12:16.856Z,0.00
2023-02-21T03:13:16.998Z,0.00
2023-02-21T03:14:17.144Z,0.00
2023-02-21T03:15:17.283Z,0.00
2023-02-21T03:16:17.441Z,0.00
2023-02-21T03:17:17.557Z,0.00
2023-02-21T03:18:17.683Z,0.00
2023-02-21T03:19:17.827Z,0.00
2023-02-21T03:20:17.960Z,0.00
2023-02-21T03:21:18.085Z,0.00
2023-02-21T03:22:18.213Z,0.00
2023-02-21T03:23:18.358Z,0.00
2023-02-21T03:24:18.486Z,0.00
2023-02-21T03:25:18.618Z,0.00
2023-02-21T03:26:18.742Z,0.00
2023-02-21T03:27:18.868Z,0.00
2023-02-21T03:28:19.002Z,0.00
2023-02-21T03:29:19.161Z,0.00
2023-02-21T03:30:19.364Z,0.00
2023-02-21T03:31:19.408Z,0.00
2023-02-21T03:32:19.490Z,0.00
2023-02-21T03:33:19.598Z,0.00
2023-02-21T03:34:19.747Z,0.00
2023-02-21T03:35:19.882Z,0.00
2023-02-21T03:36:20.021Z,0.00
2023-02-21T03:37:20.162Z,0.00
2023-02-21T03:38:20.304Z,0.00
2023-02-21T03:39:20.458Z,0.00
2023-02-21T03:40:20.616Z,0.00
2023-02-21T03:41:20.765Z,0.00
2023-02-21T03:42:20.891Z,0.00
2023-02-21T03:43:21.027Z,0.00
2023-02-21T03:44:21.166Z,0.00
2023-02-21T03:45:21.301Z,0.00
2023-02-21T03:46:21.455Z,0.00
2023-02-21T03:47:21.577Z,0.00
2023-02-21T03:48:31.475Z,0.00
2023-02-21T03:49:22.802Z,0.00
2023-02-21T03:50:21.911Z,0.00
2023-02-21T03:51:22.063Z,0.00
2023-02-21T03:52:22.173Z,0.00
2023-02-21T03:53:22.321Z,0.00
2023-02-21T03:54:22.433Z,0.00
2023-02-21T03:55:22.576Z,0.00
2023-02-21T03:56:24.453Z,0.00
2023-02-21T03:57:23.802Z,0.00
2023-02-21T03:58:22.948Z,0.00
2023-02-21T03:59:23.157Z,0.00
2023-02-21T04:00:23.169Z,0.00
2023-02-21T04:01:23.363Z,0.00
2023-02-21T04:02:23.395Z,0.00
2023-02-21T04:03:23.560Z,0.00
2023-02-21T04:04:23.684Z,0.00
2023-02-21T04:05:23.828Z,0.00
2023-02-21T04:06:23.952Z,0.00
2023-02-21T04:07:24.078Z,0.00
2023-02-21T04:08:24.217Z,0.00
2023-02-21T04:09:24.349Z,0.00
2023-02-21T04:10:24.479Z,0.00
2023-02-21T04:11:24.616Z,0.00
2023-02-21T04:12:24.726Z,0.00
2023-02-21T04:13:24.895Z,0.00
2023-02-21T04:14:25.004Z,0.00
2023-02-21T04:15:25.157Z,0.00
2023-02-21T04:16:25.320Z,0.00
2023-02-21T04:17:25.468Z,0.00
2023-02-21T04:18:25.614Z,0.00
2023-02-21T04:19:25.744Z,0.00
2023-02-21T04:20:25.873Z,0.00
2023-02-21T04:21:25.995Z,0.00
2023-02-21T04:22:26.131Z,0.00
2023-02-21T04:23:26.291Z,0.00
2023-02-21T04:24:26.414Z,0.00
2023-02-21T04:25:26.548Z,0.00
2023-02-21T04:26:26.671Z,0.00
2023-02-21T04:27:26.808Z,0.00
2023-02-21T04:28:26.944Z,0.00
2023-02-21T04:29:27.073Z,0.00
2023-02-21T04:30:27.261Z,0.00
2023-02-21T04:31:27.359Z,0.00
2023-02-21T04:32:27.652Z,0.00
2023-02-21T04:33:27.666Z,0.00
2023-02-21T04:34:27.834Z,0.00
2023-02-21T04:35:27.996Z,0.00
2023-02-21T04:36:28.118Z,0.00
2023-02-21T04:37:28.256Z,0.00
2023-02-21T04:38:28.409Z,0.00
2023-02-21T04:39:28.531Z,0.00
2023-02-21T04:40:28.647Z,0.00
2023-02-21T04:41:28.769Z,0.00
2023-02-21T04:42:28.894Z,0.00
2023-02-21T04:43:29.044Z,0.00
2023-02-21T04:44:29.190Z,0.00
2023-02-21T04:45:29.340Z,0.00
2023-02-21T04:46:29.451Z,0.00
2023-02-21T04:47:29.582Z,0.00
2023-02-21T04:48:29.743Z,0.00
2023-02-21T04:49:29.875Z,0.00
2023-02-21T04:50:29.991Z,0.00
2023-02-21T04:51:30.141Z,0.00
2023-02-21T04:52:30.255Z,0.00
2023-02-21T04:53:30.412Z,0.00
2023-02-21T04:54:30.578Z,0.00
2023-02-21T04:55:30.708Z,0.00
2023-02-21T04:56:30.903Z,0.00
2023-02-21T04:57:30.933Z,0.00
2023-02-21T04:58:39.641Z,0.00
2023-02-21T04:59:32.197Z,0.00
2023-02-21T05:00:31.313Z,0.00
2023-02-21T05:01:31.796Z,0.00
2023-02-21T05:02:31.667Z,0.00
2023-02-21T05:03:31.885Z,0.00
2023-02-21T05:04:32.001Z,0.00
2023-02-21T05:05:32.094Z,0.00
2023-02-21T05:06:32.230Z,0.00
2023-02-21T05:07:32.372Z,0.00
2023-02-21T05:08:32.513Z,0.00
2023-02-21T05:09:32.655Z,0.00
2023-02-21T05:10:44.959Z,0.00
2023-02-21T05:11:33.955Z,0.00
2023-02-21T05:12:33.076Z,0.00
2023-02-21T05:13:33.242Z,0.00
2023-02-21T05:14:33.371Z,0.00
2023-02-21T05:15:33.508Z,0.00
2023-02-21T05:16:33.737Z,0.00
2023-02-21T05:17:33.799Z,0.00
2023-02-21T05:18:34.045Z,0.00
2023-02-21T05:19:34.152Z,0.00
2023-02-21T05:20:34.273Z,0.00
2023-02-21T05:21:34.290Z,0.00
2023-02-21T05:22:34.420Z,0.00
2023-02-21T05:23:34.574Z,0.00
2023-02-21T05:24:34.694Z,0.00
2023-02-21T05:25:34.846Z,0.00
2023-02-21T05:26:35.018Z,0.00
2023-02-21T05:27:35.157Z,0.00
2023-02-21T05:28:35.314Z,0.00
2023-02-21T05:29:35.443Z,0.00
2023-02-21T05:30:35.664Z,0.00
2023-02-21T05:31:35.770Z,0.00
2023-02-21T05:32:35.907Z,0.00
2023-02-21T05:33:36.079Z,0.00
2023-02-21T05:34:36.216Z,0.00
2023-02-21T05:35:36.355Z,0.00
2023-02-21T05:36:36.479Z,0.00
2023-02-21T05:37:36.638Z,0.00
2023-02-21T05:38:36.809Z,0.00
2023-02-21T05:39:36.889Z,0.00
2023-02-21T05:40:37.041Z,0.00
2023-02-21T05:41:37.218Z,0.00
2023-02-21T05:42:37.381Z,0.00
2023-02-21T05:43:37.581Z,0.00
2023-02-21T05:44:37.726Z,0.00
2023-02-21T05:45:37.891Z,0.00
2023-02-21T05:46:38.036Z,0.00
2023-02-21T05:47:38.183Z,0.00
2023-02-21T05:48:38.352Z,0.00
2023-02-21T05:49:38.485Z,0.00
2023-02-21T05:50:38.985Z,0.00
2023-02-21T05:51:38.811Z,0.00
2023-02-21T05:52:38.965Z,0.00
2023-02-21T05:53:39.216Z,0.00
2023-02-21T05:54:39.269Z,0.00
2023-02-21T05:55:39.432Z,0.00
2023-02-21T05:56:39.585Z,0.00
2023-02-21T05:57:39.730Z,0.00
2023-02-21T05:58:39.916Z,0.00
2023-02-21T05:59:39.981Z,0.00
2023-02-21T06:00:40.139Z,0.00
2023-02-21T06:01:40.397Z,0.00
2023-02-21T06:02:40.435Z,0.00
2023-02-21T06:03:40.732Z,0.00
2023-02-21T06:04:40.784Z,0.00
2023-02-21T06:05:40.942Z,0.00
2023-02-21T06:06:41.091Z,0.00
2023-02-21T06:07:41.243Z,0.00
2023-02-21T06:08:41.434Z,0.00
2023-02-21T06:09:41.590Z,0.00
2023-02-21T06:10:41.751Z,0.00
2023-02-21T06:11:41.900Z,0.00
2023-02-21T06:12:42.032Z,0.00
2023-02-21T06:13:42.211Z,0.00
2023-02-21T06:14:42.345Z,0.00
2023-02-21T06:15:42.579Z,0.00
2023-02-21T06:16:42.610Z,0.00
2023-02-21T06:17:42.778Z,0.00
2023-02-21T06:18:42.944Z,0.00
2023-02-21T06:19:43.089Z,0.00
2023-02-21T06:20:43.226Z,0.00
2023-02-21T06:21:43.372Z,0.00
2023-02-21T06:22:43.507Z,0.00
2023-02-21T06:23:43.665Z,5.62
2023-02-21T06:24:43.811Z,0.00
2023-02-21T06:25:43.952Z,5.62
2023-02-21T06:26:44.079Z,0.00
2023-02-21T06:27:44.267Z,5.62
2023-02-21T06:28:44.434Z,0.00
2023-02-21T06:29:44.583Z,0.00
2023-02-21T06:30:44.796Z,0.00
2023-02-21T06:31:44.908Z,5.62
2023-02-21T06:32:44.929Z,5.62
2023-02-21T06:33:45.106Z,5.62
2023-02-21T06:34:45.251Z,5.62
2023-02-21T06:35:45.387Z,5.62
2023-02-21T06:36:45.525Z,5.62
2023-02-21T06:37:45.678Z,5.62
2023-02-21T06:38:45.835Z,5.62
2023-02-21T06:39:45.996Z,5.62
2023-02-21T06:40:46.153Z,5.62
2023-02-21T06:41:46.306Z,5.62
2023-02-21T06:42:49.914Z,11.25
2023-02-21T06:43:46.628Z,5.62
2023-02-21T06:44:46.819Z,11.25
2023-02-21T06:45:46.947Z,11.25
2023-02-21T06:46:47.118Z,11.25
2023-02-21T06:47:47.305Z,11.25
2023-02-21T06:48:47.468Z,11.25
2023-02-21T06:49:47.628Z,11.25
2023-02-21T06:50:47.784Z,11.25
2023-02-21T06:51:47.958Z,16.88
2023-02-21T06:52:48.105Z,11.25
2023-02-21T06:53:48.271Z,11.25
2023-02-21T06:54:48.398Z,11.25
2023-02-21T06:55:48.566Z,16.88
2023-02-21T06:56:48.706Z,22.50
2023-02-21T06:57:48.860Z,22.50
2023-02-21T06:58:49.012Z,22.50
2023-02-21T06:59:49.151Z,28.12
2023-02-21T07:00:49.288Z,28.12
2023-02-21T07:01:49.476Z,28.12
2023-02-21T07:02:49.603Z,33.75
2023-02-21T07:03:49.781Z,28.12
2023-02-21T07:04:49.995Z,28.12
2023-02-21T07:05:50.006Z,22.50
2023-02-21T07:06:50.194Z,16.88
2023-02-21T07:07:50.364Z,16.88
2023-02-21T07:08:50.551Z,28.12
2023-02-21T07:09:50.585Z,22.50
2023-02-21T07:10:50.731Z,22.50
2023-02-21T07:11:50.892Z,33.75
2023-02-21T07:12:51.063Z,33.75
2023-02-21T07:13:51.247Z,28.12
2023-02-21T07:14:51.404Z,45.00
2023-02-21T07:15:51.613Z,50.62
2023-02-21T07:16:51.684Z,50.62
2023-02-21T07:17:51.834Z,56.25
2023-02-21T07:18:52.063Z,61.88
2023-02-21T07:19:52.101Z,56.25
2023-02-21T07:20:52.236Z,61.88
2023-02-21T07:21:52.411Z,61.88
2023-02-21T07:22:52.530Z,78.75
2023-02-21T07:23:52.689Z,78.75
2023-02-21T07:24:52.845Z,50.62
2023-02-21T07:25:52.977Z,56.25
2023-02-21T07:26:53.134Z,45.00
2023-02-21T07:27:53.264Z,45.00
2023-02-21T07:28:53.488Z,50.62
2023-02-21T07:29:53.560Z,33.75
2023-02-21T07:30:53.697Z,28.12
2023-02-21T07:31:53.876Z,22.50
2023-02-21T07:32:59.045Z,33.75
2023-02-21T07:33:54.221Z,33.75
2023-02-21T07:34:54.023Z,33.75
2023-02-21T07:35:54.174Z,28.12
2023-02-21T07:36:54.304Z,33.75
2023-02-21T07:37:54.451Z,56.25
2023-02-21T07:38:54.616Z,84.38
2023-02-21T07:39:54.768Z,101.25
2023-02-21T07:40:54.933Z,123.75
2023-02-21T07:41:55.086Z,157.50
2023-02-21T07:42:55.284Z,174.38
2023-02-21T07:43:55.449Z,163.12
2023-02-21T07:44:55.642Z,163.12
2023-02-21T07:45:55.800Z,180.00
2023-02-21T07:46:55.959Z,196.88
2023-02-21T07:47:56.118Z,196.88
2023-02-21T07:48:56.269Z,185.62
2023-02-21T07:49:56.407Z,157.50
2023-02-21T07:50:56.554Z,146.25
2023-02-21T07:51:56.693Z,135.00
2023-02-21T07:52:56.832Z,135.00
2023-02-21T07:53:56.960Z,129.38
2023-02-21T07:54:57.099Z,118.12
2023-02-21T07:55:57.268Z,135.00
2023-02-21T07:56:57.400Z,185.62
2023-02-21T07:57:57.545Z,202.50
2023-02-21T07:58:57.671Z,191.25
2023-02-21T07:59:57.836Z,230.62
2023-02-21T08:00:57.992Z,286.88
2023-02-21T08:01:58.202Z,303.75
2023-02-21T08:02:58.313Z,309.38
2023-02-21T08:03:58.445Z,286.88
2023-02-21T08:04:58.608Z,275.62
2023-02-21T08:05:58.726Z,281.25
2023-02-21T08:06:58.857Z,281.25
2023-02-21T08:07:59.010Z,281.25
2023-02-21T08:08:59.157Z,264.38
2023-02-21T08:09:59.304Z,270.00
2023-02-21T08:10:59.447Z,292.50
2023-02-21T08:11:59.584Z,303.75
2023-02-21T08:12:59.713Z,298.12
2023-02-21T08:13:59.853Z,281.25
2023-02-21T08:15:00.013Z,281.25
2023-02-21T08:16:00.273Z,309.38
2023-02-21T08:17:00.304Z,326.25
2023-02-21T08:18:00.445Z,331.88
2023-02-21T08:19:00.582Z,337.50
2023-02-21T08:20:00.724Z,354.38
2023-02-21T08:21:00.868Z,371.25
2023-02-21T08:22:01.000Z,371.25
2023-02-21T08:23:01.133Z,360.00
2023-02-21T08:24:01.292Z,360.00
2023-02-21T08:25:01.427Z,348.75
2023-02-21T08:26:01.622Z,337.50
2023-02-21T08:27:01.742Z,337.50
2023-02-21T08:28:01.891Z,348.75
2023-02-21T08:29:02.050Z,360.00
2023-02-21T08:30:02.194Z,348.75
2023-02-21T08:31:02.413Z,331.88
2023-02-21T08:32:02.479Z,320.62
2023-02-21T08:33:02.591Z,331.88
2023-02-21T08:34:02.732Z,331.88
2023-02-21T08:35:02.877Z,331.88
2023-02-21T08:36:03.038Z,331.88
2023-02-21T08:37:03.217Z,309.38
2023-02-21T08:38:03.363Z,303.75
2023-02-21T08:39:03.476Z,309.38
2023-02-21T08:40:03.618Z,309.38
2023-02-21T08:41:03.835Z,303.75
2023-02-21T08:42:03.888Z,303.75
2023-02-21T08:43:04.026Z,303.75
2023-02-21T08:44:04.176Z,298.12
2023-02-21T08:45:04.333Z,303.75
2023-02-21T08:46:04.380Z,309.38
2023-02-21T08:47:04.524Z,309.38
2023-02-21T08:48:04.681Z,303.75
2023-02-21T08:49:04.805Z,315.00
2023-02-21T08:50:04.961Z,320.62
2023-02-21T08:51:05.097Z,331.88
2023-02-21T08:52:05.233Z,326.25
2023-02-21T08:53:05.382Z,337.50
2023-02-21T08:54:05.540Z,343.12
2023-02-21T08:55:05.667Z,360.00
2023-02-21T08:56:05.825Z,388.12
2023-02-21T08:57:13.487Z,416.25
2023-02-21T08:58:06.057Z,438.75
2023-02-21T08:59:06.258Z,433.12
2023-02-21T09:00:06.374Z,405.00
2023-02-21T09:01:06.582Z,371.25
2023-02-21T09:02:06.697Z,337.50
2023-02-21T09:03:06.890Z,309.38
2023-02-21T09:04:07.010Z,303.75
2023-02-21T09:05:07.208Z,303.75
2023-02-21T09:06:07.163Z,303.75
2023-02-21T09:07:07.185Z,309.38
2023-02-21T09:08:07.326Z,315.00
2023-02-21T09:09:07.492Z,320.62
2023-02-21T09:10:07.571Z,320.62
2023-02-21T09:11:07.807Z,320.62
2023-02-21T09:12:07.828Z,320.62
2023-02-21T09:13:07.970Z,320.62
2023-02-21T09:14:08.122Z,320.62
2023-02-21T09:15:08.335Z,315.00
2023-02-21T09:16:08.413Z,309.38
2023-02-21T09:17:08.491Z,315.00
2023-02-21T09:18:08.632Z,303.75
2023-02-21T09:19:08.766Z,292.50
2023-02-21T09:20:08.896Z,298.12
2023-02-21T09:21:09.028Z,292.50
2023-02-21T09:22:09.164Z,258.75
2023-02-21T09:23:09.286Z,292.50
2023-02-21T09:24:09.405Z,303.75
2023-02-21T09:25:09.530Z,286.88
2023-02-21T09:26:09.661Z,275.62
2023-02-21T09:27:09.790Z,230.62
2023-02-21T09:28:09.911Z,281.25
2023-02-21T09:29:10.071Z,270.00
2023-02-21T09:30:10.235Z,264.38
2023-02-21T09:31:10.378Z,202.50
2023-02-21T09:32:10.587Z,202.50
2023-02-21T09:33:10.583Z,202.50
2023-02-21T09:34:10.699Z,253.12
2023-02-21T09:35:10.826Z,303.75
2023-02-21T09:36:10.989Z,303.75
2023-02-21T09:37:11.117Z,326.25
2023-02-21T09:38:11.261Z,348.75
2023-02-21T09:39:11.374Z,292.50
2023-02-21T09:40:11.503Z,303.75
2023-02-21T09:41:11.629Z,320.62
2023-02-21T09:42:11.737Z,337.50
2023-02-21T09:43:11.856Z,399.38
2023-02-21T09:44:11.978Z,416.25
2023-02-21T09:45:12.119Z,444.38
2023-02-21T09:46:12.304Z,461.25
2023-02-21T09:47:12.317Z,455.62
2023-02-21T09:48:12.439Z,461.25
2023-02-21T09:49:12.569Z,410.62
2023-02-21T09:50:13.281Z,433.12
2023-02-21T09:51:13.082Z,478.12
2023-02-21T09:52:12.862Z,506.25
2023-02-21T09:53:12.967Z,483.75
2023-02-21T09:54:13.102Z,506.25
2023-02-21T09:55:13.216Z,528.75
2023-02-21T09:56:13.346Z,489.38
2023-02-21T09:57:13.454Z,489.38
2023-02-21T09:58:13.561Z,455.62
2023-02-21T09:59:13.689Z,382.50
2023-02-21T10:00:13.802Z,354.38
2023-02-21T10:01:14.133Z,461.25
2023-02-21T10:02:14.081Z,500.62
2023-02-21T10:03:14.181Z,466.88
2023-02-21T10:04:14.305Z,489.38
2023-02-21T10:05:14.420Z,517.50
2023-02-21T10:06:14.583Z,556.88
2023-02-21T10:07:14.694Z,596.25
2023-02-21T10:08:14.833Z,613.12
2023-02-21T10:09:14.935Z,641.25
2023-02-21T10:10:15.056Z,607.50
2023-02-21T10:11:15.452Z,669.38
2023-02-21T10:12:15.292Z,793.12
2023-02-21T10:13:15.392Z,821.25
2023-02-21T10:14:15.512Z,922.50
2023-02-21T10:15:15.609Z,1057.50
2023-02-21T10:16:15.807Z,1068.75
2023-02-21T10:17:15.821Z,1237.50
2023-02-21T10:18:18.372Z,2480.62
2023-02-21T10:19:15.983Z,2210.62
2023-02-21T10:20:16.102Z,2165.62
2023-02-21T10:21:16.521Z,1147.50
2023-02-21T10:22:16.338Z,1080.00
2023-02-21T10:23:16.476Z,1091.25
2023-02-21T10:24:16.570Z,1260.00
2023-02-21T10:25:16.649Z,1040.62
2023-02-21T10:26:16.879Z,1929.38
2023-02-21T10:27:16.873Z,1878.75
2023-02-21T10:28:16.956Z,1631.25
2023-02-21T10:29:17.036Z,1445.62
2023-02-21T10:30:17.172Z,1136.25
2023-02-21T10:31:17.521Z,1096.88
2023-02-21T10:32:17.271Z,1136.25
2023-02-21T10:33:17.244Z,804.38
2023-02-21T10:34:17.313Z,601.88
2023-02-21T10:35:17.385Z,658.12
2023-02-21T10:36:17.519Z,826.88
2023-02-21T10:37:17.614Z,641.25
2023-02-21T10:38:17.669Z,770.62
2023-02-21T10:39:17.740Z,624.38
2023-02-21T10:40:17.834Z,601.88
2023-02-21T10:41:17.946Z,804.38
2023-02-21T10:42:18.044Z,635.62
2023-02-21T10:43:18.130Z,568.12
2023-02-21T10:44:18.233Z,579.38
2023-02-21T10:45:18.322Z,568.12
2023-02-21T10:46:18.474Z,528.75
2023-02-21T10:47:18.461Z,556.88
2023-02-21T10:48:18.554Z,596.25
2023-02-21T10:49:18.633Z,461.25
2023-02-21T10:50:18.758Z,573.75
2023-02-21T10:51:18.902Z,596.25
2023-02-21T10:52:18.879Z,511.88
2023-02-21T10:53:19.042Z,478.12
2023-02-21T10:54:19.081Z,444.38
2023-02-21T10:55:31.656Z,433.12
2023-02-21T10:56:20.305Z,450.00
2023-02-21T10:57:19.289Z,450.00
2023-02-21T10:58:19.385Z,405.00
2023-02-21T10:59:19.470Z,472.50
2023-02-21T11:00:19.572Z,450.00
2023-02-21T11:01:19.688Z,405.00
2023-02-21T11:02:19.871Z,517.50
2023-02-21T11:03:19.845Z,472.50
2023-02-21T11:04:19.997Z,585.00
2023-02-21T11:05:20.014Z,556.88
2023-02-21T11:06:20.110Z,568.12
2023-02-21T11:07:20.245Z,596.25
2023-02-21T11:08:20.362Z,450.00
2023-02-21T11:09:20.426Z,466.88
2023-02-21T11:10:20.524Z,500.62
2023-02-21T11:11:20.627Z,596.25
2023-02-21T11:12:20.768Z,601.88
2023-02-21T11:13:20.864Z,613.12
2023-02-21T11:14:20.972Z,523.12
2023-02-21T11:15:21.065Z,511.88
2023-02-21T11:16:21.169Z,630.00
2023-02-21T11:17:21.295Z,691.88
2023-02-21T11:18:21.403Z,562.50
2023-02-21T11:19:21.520Z,675.00
2023-02-21T11:20:21.620Z,658.12
2023-02-21T11:21:21.721Z,703.12
2023-02-21T11:22:21.881Z,798.75
2023-02-21T11:23:21.967Z,781.88
2023-02-21T11:24:22.080Z,708.75
2023-02-21T11:25:22.182Z,703.12
2023-02-21T11:26:22.296Z,731.25
2023-02-21T11:27:22.428Z,871.88
2023-02-21T11:28:22.544Z,995.62
2023-02-21T11:29:22.643Z,973.12
2023-02-21T11:30:22.785Z,866.25
2023-02-21T11:31:22.890Z,810.00
2023-02-21T11:32:22.999Z,894.38
2023-02-21T11:33:23.110Z,995.62
2023-02-21T11:34:23.204Z,1108.12
2023-02-21T11:35:23.296Z,1063.12
2023-02-21T11:36:23.415Z,1012.50
2023-02-21T11:37:23.520Z,973.12
2023-02-21T11:38:23.642Z,990.00
2023-02-21T11:39:23.811Z,973.12
2023-02-21T11:40:23.889Z,1096.88
2023-02-21T11:41:23.989Z,1192.50
2023-02-21T11:42:24.096Z,1333.12
2023-02-21T11:43:24.181Z,1108.12
2023-02-21T11:44:24.271Z,1040.62
2023-02-21T11:45:24.365Z,1215.00
2023-02-21T11:46:24.606Z,933.75
2023-02-21T11:47:24.592Z,888.75
2023-02-21T11:48:24.675Z,1215.00
2023-02-21T11:49:24.782Z,1018.12
2023-02-21T11:50:24.849Z,1186.88
2023-02-21T11:51:24.951Z,832.50
2023-02-21T11:52:25.028Z,613.12
2023-02-21T11:53:25.123Z,562.50
2023-02-21T11:54:25.200Z,556.88
2023-02-21T11:55:26.464Z,590.62
2023-02-21T11:56:25.380Z,466.88
2023-02-21T11:57:25.505Z,416.25
2023-02-21T11:58:25.585Z,410.62
2023-02-21T11:59:25.673Z,382.50
2023-02-21T12:00:25.789Z,421.88
2023-02-21T12:01:25.880Z,427.50
2023-02-21T12:02:26.011Z,410.62
2023-02-21T12:03:26.015Z,326.25
2023-02-21T12:04:26.101Z,253.12
2023-02-21T12:05:26.209Z,247.50
2023-02-21T12:06:26.296Z,292.50
2023-02-21T12:07:26.426Z,450.00
2023-02-21T12:08:26.525Z,478.12
2023-02-21T12:09:26.666Z,618.75
2023-02-21T12:10:26.728Z,489.38
2023-02-21T12:11:26.882Z,523.12
2023-02-21T12:12:26.892Z,765.00
2023-02-21T12:13:27.012Z,1175.62
2023-02-21T12:14:27.126Z,691.88
2023-02-21T12:15:27.229Z,1299.38
2023-02-21T12:16:27.339Z,714.38
2023-02-21T12:17:27.465Z,478.12
2023-02-21T12:18:27.561Z,686.25
2023-02-21T12:19:27.672Z,573.75
2023-02-21T12:20:27.774Z,540.00
2023-02-21T12:21:27.892Z,573.75
2023-02-21T12:22:28.009Z,630.00
2023-02-21T12:23:28.119Z,697.50
2023-02-21T12:24:28.185Z,973.12
2023-02-21T12:25:28.311Z,669.38
2023-02-21T12:26:28.402Z,495.00
2023-02-21T12:27:28.517Z,624.38
2023-02-21T12:28:28.624Z,618.75
2023-02-21T12:29:28.751Z,495.00
2023-02-21T12:30:28.868Z,438.75
2023-02-21T12:31:29.098Z,438.75
2023-02-21T12:32:29.140Z,438.75
2023-02-21T12:33:29.258Z,483.75
2023-02-21T12:34:29.375Z,523.12
2023-02-21T12:35:29.510Z,585.00
2023-02-21T12:36:29.604Z,573.75
2023-02-21T12:37:29.734Z,568.12
2023-02-21T12:38:29.828Z,585.00
2023-02-21T12:39:29.939Z,624.38
2023-02-21T12:40:30.034Z,573.75
2023-02-21T12:41:30.207Z,601.88
2023-02-21T12:42:30.314Z,770.62
2023-02-21T12:43:30.414Z,646.88
2023-02-21T12:44:32.734Z,748.12
2023-02-21T12:45:30.683Z,646.88
2023-02-21T12:46:30.808Z,658.12
2023-02-21T12:47:30.930Z,601.88
2023-02-21T12:48:31.025Z,579.38
2023-02-21T12:49:31.115Z,703.12
2023-02-21T12:50:33.269Z,466.88
2023-02-21T12:51:31.389Z,556.88
2023-02-21T12:52:31.499Z,562.50
2023-02-21T12:53:31.617Z,506.25
2023-02-21T12:54:31.710Z,427.50
2023-02-21T12:55:31.813Z,326.25
2023-02-21T12:56:31.926Z,483.75